createdAt,value
2022-09-29T00:00:32.143Z,12.87
2022-09-29T00:02:59.892Z,9.13
2022-09-29T00:05:27.604Z,11.43
2022-09-29T00:07:55.359Z,9.83
2022-09-29T00:10:24.779Z,8.67
2022-09-29T00:12:52.522Z,9.33
2022-09-29T00:15:20.286Z,8.13
2022-09-29T00:18:12.266Z,11.37
2022-09-29T00:20:35.861Z,7.37
2022-09-29T00:23:03.811Z,7.97
2022-09-29T00:25:33.000Z,8.67
2022-09-29T00:28:00.735Z,10.80
2022-09-29T00:30:28.989Z,9.93
2022-09-29T00:32:56.778Z,9.57
2022-09-29T00:35:24.529Z,9.50
2022-09-29T00:37:52.305Z,7.80
2022-09-29T00:40:20.165Z,8.60
2022-09-29T00:42:49.289Z,10.87
2022-09-29T00:45:20.410Z,12.47
2022-09-29T00:47:54.555Z,9.37
2022-09-29T00:50:25.436Z,10.83
2022-09-29T00:52:55.285Z,9.03
2022-09-29T00:55:27.351Z,7.57
2022-09-29T00:57:59.554Z,8.17
2022-09-29T01:00:27.910Z,12.47
2022-09-29T01:02:59.069Z,10.33
2022-09-29T01:05:32.548Z,10.13
2022-09-29T01:08:04.147Z,9.27
2022-09-29T01:10:32.209Z,7.97
2022-09-29T01:13:01.793Z,7.07
2022-09-29T01:15:30.415Z,9.83
2022-09-29T01:17:58.264Z,7.13
2022-09-29T01:20:26.501Z,7.20
2022-09-29T01:23:23.415Z,6.17
2022-09-29T01:26:21.207Z,4.90
2022-09-29T01:29:03.962Z,13.10
2022-09-29T01:31:36.777Z,7.00
2022-09-29T01:34:08.221Z,9.73
2022-09-29T01:36:42.627Z,8.70
2022-09-29T01:39:18.608Z,8.27
2022-09-29T01:41:51.110Z,10.00
2022-09-29T01:44:24.037Z,10.53
2022-09-29T01:46:55.186Z,21.63
2022-09-29T01:49:23.863Z,11.90
2022-09-29T01:51:54.254Z,17.73
2022-09-29T01:54:26.156Z,14.00
2022-09-29T01:56:57.675Z,18.90
2022-09-29T01:59:29.882Z,16.50
2022-09-29T02:02:01.865Z,29.40
2022-09-29T02:04:33.481Z,16.10
2022-09-29T02:07:05.042Z,26.93
2022-09-29T02:09:36.332Z,24.60
2022-09-29T02:12:07.140Z,13.30
2022-09-29T02:14:38.498Z,16.67
2022-09-29T02:17:11.949Z,13.30
2022-09-29T02:19:42.167Z,106.33
2022-09-29T02:22:09.859Z,25.20
2022-09-29T02:24:37.614Z,23.20
2022-09-29T02:27:07.069Z,16.67
2022-09-29T02:29:36.684Z,22.77
2022-09-29T02:32:05.290Z,17.90
2022-09-29T02:34:37.720Z,14.17
2022-09-29T02:37:11.616Z,14.47
2022-09-29T02:39:44.953Z,11.30
2022-09-29T02:42:20.299Z,11.40
2022-09-29T02:44:56.533Z,14.23
2022-09-29T02:47:38.040Z,9.90
2022-09-29T02:50:28.452Z,17.57
2022-09-29T02:52:59.685Z,13.80
2022-09-29T02:55:31.247Z,15.50
2022-09-29T02:58:03.112Z,16.50
2022-09-29T03:00:31.556Z,14.60
2022-09-29T03:02:59.615Z,19.00
2022-09-29T03:05:28.788Z,19.90
2022-09-29T03:07:56.553Z,15.30
2022-09-29T03:10:28.058Z,13.83
2022-09-29T03:12:57.874Z,13.87
2022-09-29T03:15:25.646Z,12.83
2022-09-29T03:17:56.569Z,12.67
2022-09-29T03:20:24.354Z,21.03
2022-09-29T03:22:56.616Z,16.60
2022-09-29T03:25:24.999Z,16.93
2022-09-29T03:27:53.083Z,18.40
2022-09-29T03:30:22.775Z,16.37
2022-09-29T03:32:50.689Z,16.13
2022-09-29T03:35:18.427Z,14.30
2022-09-29T03:37:46.168Z,14.87
2022-09-29T03:40:15.285Z,17.83
2022-09-29T03:42:43.048Z,14.43
2022-09-29T03:45:11.250Z,17.83
2022-09-29T03:47:39.277Z,19.40
2022-09-29T03:50:07.882Z,15.60
2022-09-29T03:52:35.745Z,17.33
2022-09-29T03:55:03.593Z,16.83
2022-09-29T03:57:32.670Z,15.17
2022-09-29T04:00:00.491Z,17.10
2022-09-29T04:02:28.465Z,16.57
2022-09-29T04:04:56.306Z,12.20
2022-09-29T04:07:24.032Z,18.50
2022-09-29T04:09:51.800Z,14.30
2022-09-29T04:12:19.499Z,16.50
2022-09-29T04:14:48.604Z,15.50
2022-09-29T04:17:16.432Z,16.13
2022-09-29T04:19:44.338Z,15.60
2022-09-29T04:22:12.106Z,19.60
2022-09-29T04:24:40.276Z,15.33
2022-09-29T04:27:08.071Z,16.47
2022-09-29T04:29:36.156Z,16.57
2022-09-29T04:32:06.442Z,14.60
2022-09-29T04:34:34.395Z,16.33
2022-09-29T04:37:02.500Z,15.53
2022-09-29T04:39:30.210Z,15.27
2022-09-29T04:41:57.960Z,16.57
2022-09-29T04:44:26.084Z,12.90
2022-09-29T04:46:53.741Z,14.63
2022-09-29T04:49:22.836Z,15.97
2022-09-29T04:51:50.569Z,15.50
2022-09-29T04:54:18.244Z,16.33
2022-09-29T04:56:45.983Z,16.83
2022-09-29T04:59:14.068Z,17.23
2022-09-29T05:01:41.812Z,12.37
2022-09-29T05:04:10.715Z,11.80
2022-09-29T05:06:40.023Z,16.67
2022-09-29T05:09:08.158Z,13.00
2022-09-29T05:11:35.989Z,18.93
2022-09-29T05:14:03.777Z,44.60
2022-09-29T05:16:31.766Z,21.10
2022-09-29T05:18:59.553Z,20.77
2022-09-29T05:21:28.964Z,14.10
2022-09-29T05:23:58.643Z,14.07
2022-09-29T05:26:26.478Z,20.50
2022-09-29T05:28:54.231Z,15.20
2022-09-29T05:31:22.016Z,16.60
2022-09-29T05:33:49.854Z,20.70
2022-09-29T05:36:17.766Z,18.40
2022-09-29T05:38:45.445Z,26.00
2022-09-29T05:41:16.195Z,28.80
2022-09-29T05:43:44.171Z,21.17
2022-09-29T05:46:11.996Z,17.70
2022-09-29T05:48:39.830Z,20.23
2022-09-29T05:51:10.240Z,32.83
2022-09-29T05:53:38.453Z,24.17
2022-09-29T05:56:07.687Z,24.80
2022-09-29T05:58:37.550Z,23.63
2022-09-29T06:01:08.710Z,42.87
2022-09-29T06:03:37.167Z,22.43
2022-09-29T06:06:10.881Z,17.47
2022-09-29T06:08:38.734Z,15.90
2022-09-29T06:11:07.658Z,14.30
2022-09-29T06:13:39.024Z,12.40
2022-09-29T06:16:07.404Z,16.03
2022-09-29T06:18:35.346Z,17.90
2022-09-29T06:21:04.210Z,17.60
2022-09-29T06:23:31.956Z,14.37
2022-09-29T06:26:01.967Z,19.77
2022-09-29T06:28:30.164Z,22.00
2022-09-29T06:31:01.848Z,17.77
2022-09-29T06:33:29.781Z,13.97
2022-09-29T06:36:15.764Z,15.30
2022-09-29T06:38:43.662Z,14.50
2022-09-29T06:41:11.386Z,17.57
2022-09-29T06:43:39.121Z,21.17
2022-09-29T06:46:08.342Z,15.83
2022-09-29T06:48:36.486Z,17.43
2022-09-29T06:51:10.210Z,21.90
2022-09-29T06:53:39.179Z,12.50
2022-09-29T06:56:08.985Z,26.10
2022-09-29T06:58:36.824Z,31.77
2022-09-29T07:01:06.553Z,13.93
2022-09-29T07:03:36.248Z,17.43
2022-09-29T07:06:20.658Z,22.90
2022-09-29T07:08:48.721Z,20.37
2022-09-29T07:11:18.225Z,19.03
2022-09-29T07:13:45.925Z,30.00
2022-09-29T07:16:15.365Z,23.27
2022-09-29T07:18:44.794Z,23.10
2022-09-29T07:21:16.690Z,19.97
2022-09-29T07:23:44.970Z,17.40
2022-09-29T07:26:13.003Z,21.73
2022-09-29T07:28:41.209Z,30.17
2022-09-29T07:31:14.769Z,28.13
2022-09-29T07:33:44.830Z,17.50
2022-09-29T07:36:12.714Z,19.90
2022-09-29T07:38:40.566Z,17.60
2022-09-29T07:41:10.146Z,16.93
2022-09-29T07:43:37.984Z,18.67
2022-09-29T07:46:06.746Z,24.37
2022-09-29T07:48:36.258Z,18.47
2022-09-29T07:51:07.230Z,26.13
2022-09-29T07:53:36.204Z,18.20
2022-09-29T07:56:04.683Z,21.70
2022-09-29T07:58:33.341Z,19.57
2022-09-29T08:01:01.781Z,19.30
2022-09-29T08:03:30.338Z,21.37
2022-09-29T08:05:59.214Z,19.10
2022-09-29T08:08:28.418Z,19.33
2022-09-29T08:11:02.976Z,20.40
2022-09-29T08:13:31.243Z,18.57
2022-09-29T08:16:00.305Z,19.03
2022-09-29T08:18:28.661Z,24.37
2022-09-29T08:20:58.780Z,20.30
2022-09-29T08:23:31.760Z,21.73
2022-09-29T08:26:02.784Z,20.83
2022-09-29T08:28:32.446Z,19.03
2022-09-29T08:31:04.452Z,26.50
2022-09-29T08:33:33.072Z,21.10
2022-09-29T08:36:03.670Z,28.10
2022-09-29T08:38:33.417Z,21.60
2022-09-29T08:41:05.085Z,22.07
2022-09-29T08:43:35.526Z,19.03
2022-09-29T08:46:07.338Z,21.20
2022-09-29T08:48:51.696Z,20.87
2022-09-29T08:51:38.337Z,25.80
2022-09-29T08:54:20.212Z,22.50
2022-09-29T08:56:53.838Z,20.67
2022-09-29T08:59:21.936Z,27.87
2022-09-29T09:02:01.075Z,18.60
2022-09-29T09:05:00.478Z,16.50
2022-09-29T09:07:35.380Z,23.20
2022-09-29T09:10:15.355Z,15.87
2022-09-29T09:13:03.720Z,15.73
2022-09-29T09:15:39.680Z,15.20
2022-09-29T09:18:22.489Z,14.73
2022-09-29T09:20:53.795Z,18.10
2022-09-29T09:23:24.428Z,10.77
2022-09-29T09:25:55.681Z,19.87
2022-09-29T09:28:27.575Z,13.00
2022-09-29T09:30:58.029Z,14.33
2022-09-29T09:33:31.832Z,14.10
2022-09-29T09:36:03.740Z,14.70
2022-09-29T09:38:42.291Z,11.47
2022-09-29T09:41:11.472Z,10.30
2022-09-29T09:43:42.833Z,11.33
2022-09-29T09:46:15.654Z,10.40
2022-09-29T09:48:46.200Z,11.90
2022-09-29T09:51:31.672Z,16.43
2022-09-29T09:54:03.608Z,9.13
2022-09-29T09:56:43.544Z,10.30
2022-09-29T09:59:23.192Z,14.53
2022-09-29T10:01:51.036Z,11.27
2022-09-29T10:04:18.847Z,11.93
2022-09-29T10:06:46.550Z,17.37
2022-09-29T10:09:15.803Z,14.60
2022-09-29T10:11:46.543Z,11.60
2022-09-29T10:14:16.459Z,17.70
2022-09-29T10:16:48.862Z,12.17
2022-09-29T10:19:22.493Z,15.47
2022-09-29T10:21:50.675Z,12.30
2022-09-29T10:24:26.076Z,9.83
2022-09-29T10:26:56.235Z,9.30
2022-09-29T10:29:27.027Z,9.33
2022-09-29T10:32:04.154Z,13.30
2022-09-29T10:34:33.601Z,10.93
2022-09-29T10:37:03.946Z,13.20
2022-09-29T10:39:40.222Z,8.60
2022-09-29T10:42:22.503Z,11.37
2022-09-29T10:44:52.714Z,8.80
2022-09-29T10:47:22.362Z,8.80
2022-09-29T10:50:09.225Z,11.10
2022-09-29T10:52:37.695Z,9.07
2022-09-29T10:55:06.407Z,8.83
2022-09-29T10:57:37.274Z,10.43
2022-09-29T11:00:07.084Z,20.10
2022-09-29T11:02:37.339Z,9.40
2022-09-29T11:05:13.112Z,7.03
2022-09-29T11:07:45.232Z,6.80
2022-09-29T11:10:28.710Z,7.13
2022-09-29T11:12:59.234Z,6.20
2022-09-29T11:15:28.873Z,5.03
2022-09-29T11:17:57.562Z,6.17
2022-09-29T11:20:31.144Z,6.00
2022-09-29T11:23:20.841Z,6.00
2022-09-29T11:25:56.458Z,5.70
2022-09-29T11:28:39.838Z,10.37
2022-09-29T11:31:18.614Z,5.80
2022-09-29T11:33:55.067Z,3.50
2022-09-29T11:36:27.539Z,5.23
2022-09-29T11:39:03.701Z,4.90
2022-09-29T11:41:55.528Z,3.50
2022-09-29T11:44:34.012Z,2.70
2022-09-29T11:47:07.306Z,3.83
2022-09-29T11:49:46.171Z,4.60
2022-09-29T11:52:25.670Z,3.43
2022-09-29T11:55:03.943Z,3.63
2022-09-29T11:57:44.273Z,4.53
2022-09-29T12:00:14.598Z,6.10
2022-09-29T12:03:08.053Z,8.70
2022-09-29T12:05:46.629Z,4.30
2022-09-29T12:08:22.179Z,5.60
2022-09-29T12:10:55.416Z,3.47
2022-09-29T12:13:32.518Z,4.30
2022-09-29T12:16:04.409Z,3.80
2022-09-29T12:18:36.534Z,3.47
2022-09-29T12:21:04.738Z,6.27
2022-09-29T12:23:37.918Z,3.30
2022-09-29T12:26:09.174Z,4.40
2022-09-29T12:28:42.107Z,3.60
2022-09-29T12:31:14.231Z,5.97
2022-09-29T12:33:44.214Z,3.50
2022-09-29T12:36:43.388Z,3.60
2022-09-29T12:39:16.614Z,2.73
2022-09-29T12:41:49.252Z,3.50
2022-09-29T12:44:22.271Z,3.13
2022-09-29T12:46:54.480Z,3.47
2022-09-29T12:49:24.772Z,2.70
2022-09-29T12:51:53.404Z,4.37
2022-09-29T12:54:24.550Z,3.97
2022-09-29T12:56:55.838Z,3.00
2022-09-29T12:59:30.089Z,3.57
2022-09-29T13:02:05.515Z,4.17
2022-09-29T13:04:50.472Z,3.30
2022-09-29T13:07:39.602Z,2.57
2022-09-29T13:10:19.415Z,6.07
2022-09-29T13:13:10.294Z,3.07
2022-09-29T13:15:52.107Z,2.07
2022-09-29T13:18:49.080Z,2.33
2022-09-29T13:21:31.385Z,2.23
2022-09-29T13:24:22.673Z,2.37
2022-09-29T13:27:01.910Z,3.63
2022-09-29T13:29:32.270Z,2.27
2022-09-29T13:32:00.571Z,1.60
2022-09-29T13:34:33.194Z,2.10
2022-09-29T13:37:08.665Z,1.70
2022-09-29T13:39:36.617Z,1.50
2022-09-29T13:42:43.905Z,1.50
2022-09-29T13:45:47.422Z,3.73
2022-09-29T13:48:49.833Z,2.03
2022-09-29T13:51:44.234Z,1.50
2022-09-29T13:54:35.344Z,2.50
2022-09-29T13:57:08.257Z,2.30
2022-09-29T13:59:39.569Z,2.40
2022-09-29T14:02:20.556Z,1.70
2022-09-29T14:04:53.431Z,1.93
2022-09-29T14:10:22.333Z,1.97
2022-09-29T14:12:54.684Z,1.40
2022-09-29T14:15:23.052Z,1.93
2022-09-29T14:17:54.674Z,1.90
2022-09-29T14:20:24.966Z,1.90
2022-09-29T14:22:55.618Z,2.00
2022-09-29T14:25:49.040Z,1.20
2022-09-29T14:28:19.425Z,2.47
2022-09-29T14:30:51.581Z,1.50
2022-09-29T14:33:21.152Z,1.63
2022-09-29T14:35:56.057Z,1.43
2022-09-29T14:38:26.593Z,1.77
2022-09-29T14:40:57.268Z,1.57
2022-09-29T14:43:28.001Z,1.95
2022-09-29T14:46:33.948Z,2.00
2022-09-29T14:49:42.484Z,3.70
2022-09-29T14:52:17.292Z,1.77
2022-09-29T14:54:55.381Z,2.50
2022-09-29T14:57:36.817Z,1.70
2022-09-29T15:00:10.935Z,4.07
2022-09-29T15:02:42.962Z,1.33
2022-09-29T15:05:16.162Z,3.20
2022-09-29T15:07:44.299Z,3.90
2022-09-29T15:10:23.176Z,1.20
2022-09-29T15:12:52.302Z,1.50
2022-09-29T15:15:35.338Z,1.40
2022-09-29T15:18:17.326Z,1.53
2022-09-29T15:20:54.858Z,1.47
2022-09-29T15:23:54.370Z,1.70
2022-09-29T15:26:22.149Z,2.03
2022-09-29T15:28:51.289Z,1.87
2022-09-29T15:31:21.011Z,2.17
2022-09-29T15:33:48.993Z,1.40
2022-09-29T15:36:20.662Z,3.03
2022-09-29T15:38:52.901Z,2.10
2022-09-29T15:41:27.457Z,3.40
2022-09-29T15:44:01.977Z,3.17
2022-09-29T15:46:37.176Z,1.80
2022-09-29T15:49:15.808Z,8.50
2022-09-29T15:51:45.351Z,2.83
2022-09-29T15:54:14.494Z,2.00
2022-09-29T15:57:00.345Z,1.40
2022-09-29T15:59:44.783Z,2.43
2022-09-29T16:02:17.574Z,1.80
2022-09-29T16:04:46.115Z,2.20
2022-09-29T16:07:20.218Z,2.03
2022-09-29T16:09:48.218Z,3.63
2022-09-29T16:12:18.599Z,2.40
2022-09-29T16:14:50.083Z,1.57
2022-09-29T16:17:18.049Z,1.60
2022-09-29T16:19:47.279Z,1.80
2022-09-29T16:22:19.383Z,2.97
2022-09-29T16:24:54.292Z,1.83
2022-09-29T16:27:48.738Z,3.90
2022-09-29T16:30:22.840Z,4.60
2022-09-29T16:33:04.428Z,6.30
2022-09-29T16:35:41.483Z,2.07
2022-09-29T16:38:23.704Z,3.10
2022-09-29T16:40:52.162Z,1.90
2022-09-29T16:43:23.966Z,4.70
2022-09-29T16:45:56.463Z,2.10
2022-09-29T16:48:25.302Z,2.43
2022-09-29T16:50:57.277Z,2.20
2022-09-29T16:53:29.963Z,2.03
2022-09-29T16:55:59.590Z,3.50
2022-09-29T16:58:28.318Z,6.53
2022-09-29T17:00:57.715Z,4.03
2022-09-29T17:03:25.580Z,3.87
2022-09-29T17:05:54.241Z,6.07
2022-09-29T17:08:24.367Z,8.13
2022-09-29T17:10:53.141Z,5.77
2022-09-29T17:13:21.186Z,7.30
2022-09-29T17:15:51.510Z,8.20
2022-09-29T17:18:21.980Z,4.30
2022-09-29T17:20:49.702Z,3.63
2022-09-29T17:23:17.509Z,5.63
2022-09-29T17:25:47.194Z,3.40
2022-09-29T17:28:16.199Z,5.87
2022-09-29T17:30:45.814Z,6.67
2022-09-29T17:33:15.899Z,5.77
2022-09-29T17:35:49.161Z,4.83
2022-09-29T17:38:19.500Z,5.77
2022-09-29T17:40:51.418Z,9.00
2022-09-29T17:43:19.718Z,4.83
2022-09-29T17:45:47.964Z,6.30
2022-09-29T17:48:16.305Z,10.53
2022-09-29T17:50:47.570Z,11.47
2022-09-29T17:53:16.656Z,6.10
2022-09-29T17:55:45.431Z,9.93
2022-09-29T17:58:16.008Z,10.40
2022-09-29T18:00:46.954Z,8.73
2022-09-29T18:03:20.548Z,8.90
2022-09-29T18:05:55.793Z,14.53
2022-09-29T18:08:25.168Z,10.00
2022-09-29T18:10:54.543Z,8.37
2022-09-29T18:13:23.175Z,15.10
2022-09-29T18:15:51.000Z,9.40
2022-09-29T18:18:20.694Z,9.90
2022-09-29T18:20:50.611Z,12.60
2022-09-29T18:23:19.334Z,11.13
2022-09-29T18:25:48.821Z,9.63
2022-09-29T18:28:17.362Z,12.00
2022-09-29T18:30:46.984Z,9.87
2022-09-29T18:33:16.275Z,14.13
2022-09-29T18:35:46.374Z,12.37
2022-09-29T18:38:15.447Z,17.50
2022-09-29T18:40:43.861Z,14.63
2022-09-29T18:43:13.593Z,15.33
2022-09-29T18:45:42.290Z,13.60
2022-09-29T18:48:13.244Z,20.50
2022-09-29T18:50:43.930Z,16.13
2022-09-29T18:53:12.774Z,12.63
2022-09-29T18:55:42.587Z,24.63
2022-09-29T18:58:11.549Z,17.90
2022-09-29T19:00:41.422Z,16.53
2022-09-29T19:03:09.200Z,15.13
2022-09-29T19:05:37.093Z,13.10
2022-09-29T19:08:06.866Z,16.00
2022-09-29T19:10:36.634Z,17.60
2022-09-29T19:13:08.245Z,15.27
2022-09-29T19:15:38.506Z,13.10
2022-09-29T19:18:07.474Z,16.17
2022-09-29T19:20:36.156Z,14.53
2022-09-29T19:23:05.529Z,16.17
2022-09-29T19:25:35.514Z,15.13
2022-09-29T19:28:05.677Z,12.33
2022-09-29T19:30:35.066Z,16.50
2022-09-29T19:33:03.577Z,17.80
2022-09-29T19:35:31.315Z,15.90
2022-09-29T19:37:59.484Z,34.40
2022-09-29T19:40:29.077Z,17.67
2022-09-29T19:42:58.469Z,25.73
2022-09-29T19:45:27.701Z,23.53
2022-09-29T19:47:57.275Z,15.67
2022-09-29T19:50:43.433Z,18.37
2022-09-29T19:53:11.259Z,17.10
2022-09-29T19:55:40.294Z,15.97
2022-09-29T19:58:08.348Z,16.60
2022-09-29T20:00:38.382Z,17.47
2022-09-29T20:03:06.169Z,14.90
2022-09-29T20:05:34.025Z,14.23
2022-09-29T20:08:02.889Z,16.83
2022-09-29T20:10:30.995Z,14.60
2022-09-29T20:12:59.280Z,22.43
2022-09-29T20:15:27.080Z,15.53
2022-09-29T20:17:56.148Z,16.40
2022-09-29T20:20:23.923Z,19.43
2022-09-29T20:22:53.364Z,18.23
2022-09-29T20:25:21.306Z,22.60
2022-09-29T20:27:51.188Z,19.20
2022-09-29T20:30:21.385Z,16.30
2022-09-29T20:32:50.670Z,21.97
2022-09-29T20:35:19.704Z,21.57
2022-09-29T20:37:48.669Z,18.80
2022-09-29T20:40:16.579Z,15.47
2022-09-29T20:42:48.735Z,15.77
2022-09-29T20:45:16.956Z,19.93
2022-09-29T20:47:44.665Z,17.80
2022-09-29T20:50:12.409Z,21.80
2022-09-29T20:52:42.566Z,20.07
2022-09-29T20:55:12.014Z,16.10
2022-09-29T20:57:43.990Z,15.60
2022-09-29T21:00:14.374Z,18.83
2022-09-29T21:02:42.178Z,16.57
2022-09-29T21:05:10.057Z,17.30
2022-09-29T21:07:38.302Z,14.80
2022-09-29T21:10:09.922Z,13.13
2022-09-29T21:12:38.915Z,13.30
2022-09-29T21:15:07.339Z,16.47
2022-09-29T21:17:35.069Z,17.10
2022-09-29T21:20:04.005Z,13.40
2022-09-29T21:22:31.726Z,13.67
2022-09-29T21:24:59.419Z,14.97
2022-09-29T21:27:28.970Z,16.37
2022-09-29T21:29:56.691Z,16.13
2022-09-29T21:32:24.498Z,15.87
2022-09-29T21:34:52.455Z,15.70
2022-09-29T21:37:20.199Z,12.73
2022-09-29T21:39:48.005Z,13.57
2022-09-29T21:42:16.134Z,14.17
2022-09-29T21:44:45.254Z,12.20
2022-09-29T21:47:13.428Z,13.73
2022-09-29T21:49:42.902Z,12.90
2022-09-29T21:52:10.626Z,13.77
2022-09-29T21:54:38.723Z,14.83
2022-09-29T21:57:06.812Z,12.87
2022-09-29T21:59:34.562Z,14.30
2022-09-29T22:02:03.708Z,15.13
2022-09-29T22:04:31.488Z,14.90
2022-09-29T22:06:59.540Z,16.67
2022-09-29T22:09:27.496Z,14.07
2022-09-29T22:11:55.253Z,17.53
2022-09-29T22:14:24.386Z,16.60
2022-09-29T22:16:52.155Z,15.20
2022-09-29T22:19:23.683Z,16.57
2022-09-29T22:21:52.477Z,13.00
2022-09-29T22:24:20.186Z,15.73
2022-09-29T22:26:47.914Z,18.90
2022-09-29T22:29:15.850Z,13.70
2022-09-29T22:31:43.791Z,15.03
2022-09-29T22:34:12.062Z,14.53
2022-09-29T22:36:41.173Z,16.70
2022-09-29T22:39:09.299Z,14.90
2022-09-29T22:41:39.642Z,17.87
2022-09-29T22:44:07.811Z,26.90
2022-09-29T22:46:35.894Z,14.00
2022-09-29T22:49:04.353Z,10.73
2022-09-29T22:51:32.731Z,17.70
2022-09-29T22:54:01.815Z,9.07
2022-09-29T22:56:29.641Z,13.33
2022-09-29T22:59:00.834Z,10.53
2022-09-29T23:01:29.106Z,10.37
2022-09-29T23:03:57.009Z,13.50
2022-09-29T23:06:24.773Z,13.33
2022-09-29T23:08:54.305Z,16.17
2022-09-29T23:11:23.439Z,10.23
2022-09-29T23:13:51.996Z,12.60
2022-09-29T23:16:22.172Z,9.30
2022-09-29T23:18:53.939Z,11.53
2022-09-29T23:21:22.357Z,12.87
2022-09-29T23:23:53.520Z,10.13
2022-09-29T23:26:21.280Z,10.40
2022-09-29T23:28:50.466Z,12.67
2022-09-29T23:31:18.225Z,11.23
2022-09-29T23:33:45.969Z,12.50
2022-09-29T23:36:15.181Z,10.03
2022-09-29T23:39:00.976Z,8.97
2022-09-29T23:41:30.069Z,13.60
2022-09-29T23:44:03.174Z,9.97
2022-09-29T23:46:31.538Z,14.20
2022-09-29T23:49:00.001Z,9.17
2022-09-29T23:51:28.170Z,12.00
2022-09-29T23:53:55.896Z,11.07
2022-09-29T23:56:23.660Z,13.63
2022-09-29T23:58:51.436Z,10.93
